SVA9389 OEMA-WIDD
Flight info
| Callsign | SVA9389 |
|---|---|
| Flight time | N/A |
| Altitude | 37000 |
| Route | MEDRO J852 BDB Y214 RAPMA/N0473F290 Y214 KUTNA M440 MIDGU/N0481F370 M440 TULBU M628 TOLDA L555 TOTOX/N0481F390 P574 ELSAR/N0477F410 P574 ANSAX L762 AKPAG DCT MIBEL |
| Aircraft | B77W/H-SDE1E2E3FGHIJ2J3J4J5M1RWXY/LB1D1 |
Departure
| Time | 2026-05-09 05:45 |
|---|---|
| Airport | Prince Mohammad Bin Abdulaziz Airport (OEMA) |
Arrival
| Time | N/A |
|---|---|
| Airport | Hang Nadim International Airport (WIDD) |
| Time | Latitude | Longitude | Altitude | Speed | Heading |
|---|---|---|---|---|---|
| 2026-05-09 05:10 | 24.55959 | 39.71183 | 2075 ft | 0 kts | 79° |
| 2026-05-09 05:33 | 24.55956 | 39.71168 | 2072 ft | 4 kts | 80° |
| 2026-05-09 05:33 | 24.55952 | 39.71138 | 2074 ft | 4 kts | 81° |
| 2026-05-09 05:33 | 24.55948 | 39.71114 | 2075 ft | 4 kts | 75° |
| 2026-05-09 05:33 | 24.55940 | 39.71092 | 2071 ft | 4 kts | 41° |
| 2026-05-09 05:34 | 24.55928 | 39.71085 | 2075 ft | 4 kts | 354° |
| 2026-05-09 05:34 | 24.55902 | 39.71091 | 2073 ft | 3 kts | 346° |
| 2026-05-09 05:34 | 24.55891 | 39.71094 | 2072 ft | 4 kts | 349° |
| 2026-05-09 05:37 | 24.55929 | 39.71086 | 2075 ft | 9 kts | 349° |
| 2026-05-09 05:37 | 24.55992 | 39.71072 | 2074 ft | 9 kts | 341° |
| 2026-05-09 05:37 | 24.56011 | 39.71019 | 2072 ft | 8 kts | 264° |
| 2026-05-09 05:38 | 24.56001 | 39.70959 | 2072 ft | 8 kts | 259° |
| 2026-05-09 05:38 | 24.55995 | 39.70899 | 2075 ft | 8 kts | 280° |
| 2026-05-09 05:38 | 24.56040 | 39.70868 | 2071 ft | 8 kts | 343° |
| 2026-05-09 05:38 | 24.56110 | 39.70851 | 2072 ft | 14 kts | 348° |
| 2026-05-09 05:39 | 24.56228 | 39.70825 | 2072 ft | 21 kts | 349° |
| 2026-05-09 05:39 | 24.56356 | 39.70799 | 2075 ft | 17 kts | 349° |
| 2026-05-09 05:39 | 24.56475 | 39.70773 | 2073 ft | 17 kts | 349° |
| 2026-05-09 05:39 | 24.56575 | 39.70752 | 2074 ft | 13 kts | 349° |
| 2026-05-09 05:40 | 24.56661 | 39.70733 | 2074 ft | 13 kts | 349° |
| 2026-05-09 05:40 | 24.56749 | 39.70715 | 2074 ft | 13 kts | 349° |
| 2026-05-09 05:40 | 24.56836 | 39.70696 | 2069 ft | 13 kts | 349° |
| 2026-05-09 05:40 | 24.56921 | 39.70678 | 2071 ft | 13 kts | 349° |
| 2026-05-09 05:41 | 24.57007 | 39.70660 | 2071 ft | 13 kts | 349° |
| 2026-05-09 05:41 | 24.57094 | 39.70641 | 2071 ft | 13 kts | 349° |
| 2026-05-09 05:41 | 24.57180 | 39.70623 | 2070 ft | 13 kts | 349° |
| 2026-05-09 05:41 | 24.57266 | 39.70605 | 2070 ft | 13 kts | 349° |
| 2026-05-09 05:42 | 24.57353 | 39.70586 | 2071 ft | 13 kts | 349° |
| 2026-05-09 05:42 | 24.57439 | 39.70568 | 2074 ft | 13 kts | 349° |
| 2026-05-09 05:42 | 24.57526 | 39.70549 | 2070 ft | 13 kts | 349° |
| 2026-05-09 05:42 | 24.57611 | 39.70531 | 2072 ft | 12 kts | 345° |
| 2026-05-09 05:43 | 24.57647 | 39.70471 | 2075 ft | 10 kts | 272° |
| 2026-05-09 05:43 | 24.57637 | 39.70397 | 2074 ft | 10 kts | 260° |
| 2026-05-09 05:43 | 24.57607 | 39.70343 | 2072 ft | 8 kts | 198° |
| 2026-05-09 05:43 | 24.57546 | 39.70354 | 2070 ft | 16 kts | 168° |
| 2026-05-09 05:44 | 24.57273 | 39.70413 | 2072 ft | 74 kts | 169° |
| 2026-05-09 05:44 | 24.56526 | 39.70575 | 2076 ft | 142 kts | 168° |
| 2026-05-09 05:44 | 24.55368 | 39.70809 | 2132 ft | 188 kts | 168° |
| 2026-05-09 05:44 | 24.54055 | 39.71083 | 2637 ft | 198 kts | 165° |
| 2026-05-09 05:45 | 24.52742 | 39.71388 | 3499 ft | 189 kts | 166° |
| 2026-05-09 05:45 | 24.51447 | 39.71658 | 4130 ft | 194 kts | 169° |
| 2026-05-09 05:45 | 24.50047 | 39.71950 | 4559 ft | 216 kts | 169° |
| 2026-05-09 05:45 | 24.48460 | 39.72278 | 4792 ft | 250 kts | 169° |
| 2026-05-09 05:46 | 24.46684 | 39.72647 | 5382 ft | 266 kts | 168° |
| 2026-05-09 05:46 | 24.44873 | 39.73089 | 6187 ft | 270 kts | 169° |
| 2026-05-09 05:46 | 24.43029 | 39.73454 | 7072 ft | 269 kts | 171° |
| 2026-05-09 05:46 | 24.41175 | 39.73808 | 7915 ft | 273 kts | 171° |
| 2026-05-09 05:47 | 24.39292 | 39.74185 | 8730 ft | 277 kts | 171° |
| 2026-05-09 05:47 | 24.37458 | 39.74837 | 9445 ft | 284 kts | 150° |
| 2026-05-09 05:47 | 24.35969 | 39.76292 | 10189 ft | 292 kts | 129° |
| 2026-05-09 05:47 | 24.34941 | 39.78278 | 10588 ft | 311 kts | 118° |
| 2026-05-09 05:48 | 24.34265 | 39.80638 | 10731 ft | 342 kts | 96° |
| 2026-05-09 05:48 | 24.34478 | 39.83335 | 10962 ft | 369 kts | 80° |
| 2026-05-09 05:48 | 24.35070 | 39.86123 | 11541 ft | 383 kts | 78° |
| 2026-05-09 05:48 | 24.35678 | 39.89003 | 12357 ft | 390 kts | 80° |
| 2026-05-09 05:49 | 24.36188 | 39.91946 | 13249 ft | 397 kts | 82° |
| 2026-05-09 05:49 | 24.36632 | 39.94959 | 14095 ft | 403 kts | 83° |
| 2026-05-09 05:49 | 24.37053 | 39.98012 | 14965 ft | 406 kts | 83° |
| 2026-05-09 05:49 | 24.37477 | 40.01081 | 15910 ft | 409 kts | 82° |
| 2026-05-09 05:50 | 24.37909 | 40.04176 | 16811 ft | 412 kts | 82° |
| 2026-05-09 05:50 | 24.38346 | 40.07297 | 17679 ft | 416 kts | 81° |
| 2026-05-09 05:50 | 24.38790 | 40.10453 | 18475 ft | 422 kts | 81° |
| 2026-05-09 05:50 | 24.39239 | 40.13652 | 19165 ft | 427 kts | 81° |
| 2026-05-09 05:51 | 24.39692 | 40.16889 | 19878 ft | 432 kts | 81° |
| 2026-05-09 05:51 | 24.40149 | 40.20167 | 20554 ft | 438 kts | 81° |
| 2026-05-09 05:51 | 24.40606 | 40.23442 | 21243 ft | 443 kts | 81° |
| 2026-05-09 05:51 | 24.41074 | 40.26804 | 21935 ft | 448 kts | 81° |
| 2026-05-09 05:52 | 24.41546 | 40.30205 | 22588 ft | 454 kts | 81° |
| 2026-05-09 05:52 | 24.42020 | 40.33648 | 23207 ft | 460 kts | 81° |
| 2026-05-09 05:52 | 24.42498 | 40.37136 | 23818 ft | 465 kts | 80° |
| 2026-05-09 05:52 | 24.42979 | 40.40657 | 24382 ft | 469 kts | 81° |
| 2026-05-09 05:53 | 24.43465 | 40.44213 | 24963 ft | 473 kts | 81° |
| 2026-05-09 05:53 | 24.43953 | 40.47798 | 25527 ft | 477 kts | 81° |
| 2026-05-09 05:53 | 24.44444 | 40.51407 | 26104 ft | 480 kts | 81° |
| 2026-05-09 05:53 | 24.44939 | 40.55047 | 26656 ft | 484 kts | 81° |
| 2026-05-09 05:54 | 24.45438 | 40.58721 | 27189 ft | 489 kts | 81° |
| 2026-05-09 05:54 | 24.45834 | 40.62442 | 27693 ft | 493 kts | 88° |
| 2026-05-09 05:54 | 24.45641 | 40.66211 | 28202 ft | 497 kts | 96° |
| 2026-05-09 05:54 | 24.45194 | 40.69984 | 28720 ft | 501 kts | 98° |
| 2026-05-09 05:55 | 24.44698 | 40.73782 | 29202 ft | 505 kts | 98° |
| 2026-05-09 05:55 | 24.44218 | 40.77623 | 29668 ft | 509 kts | 97° |
| 2026-05-09 05:55 | 24.43777 | 40.81483 | 30148 ft | 512 kts | 97° |
| 2026-05-09 05:55 | 24.43367 | 40.85372 | 30530 ft | 515 kts | 96° |
| 2026-05-09 05:56 | 24.42972 | 40.89287 | 30868 ft | 518 kts | 97° |
| 2026-05-09 05:56 | 24.42580 | 40.93226 | 31164 ft | 522 kts | 97° |
| 2026-05-09 05:56 | 24.42182 | 40.97193 | 31479 ft | 524 kts | 97° |
| 2026-05-09 05:56 | 24.41777 | 41.01188 | 31791 ft | 527 kts | 97° |
| 2026-05-09 05:57 | 24.41367 | 41.05183 | 32161 ft | 527 kts | 97° |
| 2026-05-09 05:57 | 24.40954 | 41.09176 | 32579 ft | 527 kts | 98° |
| 2026-05-09 05:57 | 24.40537 | 41.13162 | 33011 ft | 526 kts | 98° |
| 2026-05-09 05:57 | 24.40117 | 41.17143 | 33387 ft | 526 kts | 98° |
| 2026-05-09 05:58 | 24.39695 | 41.21131 | 33747 ft | 527 kts | 99° |
| 2026-05-09 05:58 | 24.39270 | 41.25127 | 34103 ft | 527 kts | 99° |
| 2026-05-09 05:58 | 24.38846 | 41.29125 | 34409 ft | 527 kts | 99° |
| 2026-05-09 05:58 | 24.38421 | 41.33119 | 34714 ft | 528 kts | 99° |
| 2026-05-09 05:59 | 24.38001 | 41.37071 | 34994 ft | 529 kts | 99° |
| 2026-05-09 05:59 | 24.37567 | 41.41129 | 35274 ft | 529 kts | 99° |
| 2026-05-09 05:59 | 24.37138 | 41.45139 | 35569 ft | 529 kts | 100° |
| 2026-05-09 05:59 | 24.36708 | 41.49150 | 35844 ft | 530 kts | 100° |
| 2026-05-09 06:00 | 24.36282 | 41.53113 | 36104 ft | 531 kts | 100° |
| 2026-05-09 06:00 | 24.35842 | 41.57186 | 36363 ft | 531 kts | 100° |
| 2026-05-09 06:00 | 24.35414 | 41.61152 | 36618 ft | 532 kts | 101° |
| 2026-05-09 06:00 | 24.34977 | 41.65184 | 36868 ft | 532 kts | 101° |
| 2026-05-09 06:01 | 24.34532 | 41.69277 | 36999 ft | 535 kts | 101° |
| 2026-05-09 06:01 | 24.34097 | 41.73278 | 37041 ft | 534 kts | 101° |
| 2026-05-09 06:01 | 24.33189 | 41.81296 | 37056 ft | 526 kts | 104° |
| 2026-05-09 06:02 | 24.31485 | 41.89010 | 37067 ft | 518 kts | 111° |
| 2026-05-09 06:02 | 24.29420 | 41.96582 | 37068 ft | 519 kts | 112° |
| 2026-05-09 06:03 | 24.27363 | 42.04190 | 37066 ft | 521 kts | 112° |
| 2026-05-09 06:03 | 24.25338 | 42.11825 | 37065 ft | 522 kts | 112° |
| 2026-05-09 06:04 | 24.23322 | 42.19461 | 37064 ft | 522 kts | 112° |
| 2026-05-09 06:04 | 24.21299 | 42.27103 | 37075 ft | 523 kts | 112° |
| 2026-05-09 06:05 | 24.19263 | 42.34760 | 37067 ft | 524 kts | 112° |
| 2026-05-09 06:05 | 24.17222 | 42.42422 | 37060 ft | 525 kts | 112° |
| 2026-05-09 06:06 | 24.15173 | 42.50093 | 37073 ft | 525 kts | 112° |
| 2026-05-09 06:06 | 24.13123 | 42.57757 | 37079 ft | 525 kts | 112° |
| 2026-05-09 06:07 | 24.11066 | 42.65427 | 37071 ft | 526 kts | 112° |
| 2026-05-09 06:07 | 24.08998 | 42.73120 | 37075 ft | 527 kts | 112° |
| 2026-05-09 06:08 | 24.06926 | 42.80818 | 37080 ft | 528 kts | 112° |
| 2026-05-09 06:08 | 24.05198 | 42.87224 | 37079 ft | 528 kts | 113° |
| 2026-05-09 06:09 | 24.02761 | 42.96238 | 37082 ft | 529 kts | 113° |
| 2026-05-09 06:09 | 24.01025 | 43.02654 | 37084 ft | 530 kts | 113° |
| 2026-05-09 06:10 | 23.98933 | 43.10375 | 37092 ft | 530 kts | 113° |
| 2026-05-09 06:10 | 23.96830 | 43.18118 | 37092 ft | 531 kts | 113° |
| 2026-05-09 06:11 | 23.94723 | 43.25863 | 37086 ft | 532 kts | 113° |
| 2026-05-09 06:11 | 23.92611 | 43.33608 | 37094 ft | 531 kts | 113° |
| 2026-05-09 06:12 | 23.90495 | 43.41350 | 37087 ft | 532 kts | 113° |
| 2026-05-09 06:12 | 23.88371 | 43.49100 | 37085 ft | 532 kts | 114° |
| 2026-05-09 06:13 | 23.86244 | 43.56848 | 37083 ft | 533 kts | 114° |
| 2026-05-09 06:13 | 23.84128 | 43.64544 | 37079 ft | 532 kts | 114° |
| 2026-05-09 06:14 | 23.81978 | 43.72344 | 37070 ft | 533 kts | 114° |
| 2026-05-09 06:14 | 23.79856 | 43.80029 | 37066 ft | 532 kts | 114° |
| 2026-05-09 06:15 | 23.77805 | 43.87785 | 37059 ft | 534 kts | 110° |
| 2026-05-09 06:15 | 23.76740 | 43.95884 | 37066 ft | 544 kts | 100° |
| 2026-05-09 06:16 | 23.76203 | 44.04121 | 37055 ft | 544 kts | 99° |
| 2026-05-09 06:16 | 23.75652 | 44.12356 | 37043 ft | 543 kts | 100° |
| 2026-05-09 06:17 | 23.75048 | 44.20553 | 37053 ft | 542 kts | 101° |
| 2026-05-09 06:17 | 23.74420 | 44.28743 | 37059 ft | 541 kts | 101° |
| 2026-05-09 06:18 | 23.73791 | 44.36917 | 37057 ft | 540 kts | 101° |
| 2026-05-09 06:18 | 23.73163 | 44.45078 | 37056 ft | 539 kts | 101° |
| 2026-05-09 06:19 | 23.72532 | 44.53230 | 37058 ft | 539 kts | 101° |
| 2026-05-09 06:19 | 23.71896 | 44.61387 | 37066 ft | 540 kts | 101° |
| 2026-05-09 06:20 | 23.71256 | 44.69539 | 37056 ft | 540 kts | 101° |
| 2026-05-09 06:20 | 23.70616 | 44.77644 | 37058 ft | 539 kts | 101° |
| 2026-05-09 06:21 | 23.69964 | 44.85848 | 37057 ft | 539 kts | 101° |
| 2026-05-09 06:21 | 23.69310 | 44.93992 | 37059 ft | 539 kts | 101° |
| 2026-05-09 06:22 | 23.68655 | 45.02076 | 37058 ft | 539 kts | 101° |
| 2026-05-09 06:22 | 23.67992 | 45.10223 | 37054 ft | 539 kts | 101° |
| 2026-05-09 06:23 | 23.67326 | 45.18353 | 37047 ft | 539 kts | 100° |
| 2026-05-09 06:23 | 23.66655 | 45.26495 | 37054 ft | 539 kts | 100° |
| 2026-05-09 06:24 | 23.65982 | 45.34645 | 37050 ft | 540 kts | 100° |
| 2026-05-09 06:24 | 23.65305 | 45.42797 | 37048 ft | 540 kts | 100° |
| 2026-05-09 06:25 | 23.64624 | 45.50940 | 37037 ft | 540 kts | 100° |
| 2026-05-09 06:25 | 23.63939 | 45.59091 | 37045 ft | 539 kts | 100° |
| 2026-05-09 06:26 | 23.63250 | 45.67229 | 37040 ft | 538 kts | 100° |
| 2026-05-09 06:26 | 23.62558 | 45.75359 | 37036 ft | 538 kts | 100° |
| 2026-05-09 06:27 | 23.61864 | 45.83478 | 37035 ft | 538 kts | 100° |
| 2026-05-09 06:27 | 23.61166 | 45.91600 | 37031 ft | 537 kts | 100° |
| 2026-05-09 06:28 | 23.60464 | 45.99707 | 37036 ft | 537 kts | 100° |
| 2026-05-09 06:28 | 23.59760 | 46.07797 | 37032 ft | 536 kts | 100° |
| 2026-05-09 06:29 | 23.59052 | 46.15877 | 37037 ft | 535 kts | 100° |
| 2026-05-09 06:29 | 23.58342 | 46.23951 | 37035 ft | 535 kts | 100° |
| 2026-05-09 06:30 | 23.57626 | 46.32007 | 37041 ft | 534 kts | 101° |
| 2026-05-09 06:30 | 23.56907 | 46.40055 | 37054 ft | 534 kts | 101° |
| 2026-05-09 06:31 | 23.56189 | 46.48100 | 37068 ft | 533 kts | 101° |
| 2026-05-09 06:31 | 23.55459 | 46.56156 | 37061 ft | 533 kts | 101° |
| 2026-05-09 06:32 | 23.54718 | 46.64196 | 37055 ft | 533 kts | 101° |
| 2026-05-09 06:33 | 23.53607 | 46.76172 | 37052 ft | 531 kts | 101° |
| 2026-05-09 06:33 | 23.52860 | 46.84179 | 37051 ft | 531 kts | 101° |
| 2026-05-09 06:34 | 23.51732 | 46.96193 | 37039 ft | 531 kts | 101° |
| 2026-05-09 06:34 | 23.50977 | 47.04186 | 37036 ft | 530 kts | 101° |
| 2026-05-09 06:35 | 23.50218 | 47.12170 | 37038 ft | 530 kts | 101° |
| 2026-05-09 06:35 | 23.49454 | 47.20161 | 37031 ft | 530 kts | 101° |
| 2026-05-09 06:36 | 23.48687 | 47.28146 | 37023 ft | 529 kts | 101° |
| 2026-05-09 06:36 | 23.47917 | 47.36114 | 37024 ft | 528 kts | 101° |
| 2026-05-09 06:37 | 23.47144 | 47.44072 | 37023 ft | 528 kts | 101° |
| 2026-05-09 06:37 | 23.46368 | 47.52025 | 37019 ft | 529 kts | 101° |
| 2026-05-09 06:38 | 23.45592 | 47.59988 | 37013 ft | 529 kts | 101° |
| 2026-05-09 06:38 | 23.44816 | 47.67946 | 37008 ft | 528 kts | 101° |
| 2026-05-09 06:39 | 23.44037 | 47.75894 | 37007 ft | 528 kts | 101° |
| 2026-05-09 06:39 | 23.43253 | 47.83837 | 36996 ft | 527 kts | 101° |
| 2026-05-09 06:40 | 23.42473 | 47.91709 | 36997 ft | 526 kts | 101° |
| 2026-05-09 06:40 | 23.41679 | 47.99672 | 36989 ft | 525 kts | 101° |
| 2026-05-09 06:41 | 23.40887 | 48.07574 | 36989 ft | 525 kts | 102° |
| 2026-05-09 06:41 | 23.40097 | 48.15415 | 36983 ft | 525 kts | 102° |
| 2026-05-09 06:42 | 23.39298 | 48.23311 | 36978 ft | 524 kts | 102° |
| 2026-05-09 06:42 | 23.38498 | 48.31188 | 36984 ft | 523 kts | 102° |
| 2026-05-09 06:43 | 23.37927 | 48.39110 | 36995 ft | 526 kts | 97° |
| 2026-05-09 06:43 | 23.37641 | 48.47067 | 36983 ft | 527 kts | 97° |
| 2026-05-09 06:44 | 23.37360 | 48.55046 | 36974 ft | 527 kts | 97° |
| 2026-05-09 06:44 | 23.37047 | 48.63006 | 36979 ft | 526 kts | 97° |
| 2026-05-09 06:45 | 23.36716 | 48.70957 | 36967 ft | 526 kts | 97° |
| 2026-05-09 06:45 | 23.36382 | 48.78894 | 36978 ft | 525 kts | 97° |
| 2026-05-09 06:46 | 23.36047 | 48.86839 | 36974 ft | 525 kts | 97° |
| 2026-05-09 06:46 | 23.35708 | 48.94774 | 36972 ft | 525 kts | 97° |
| 2026-05-09 06:47 | 23.35365 | 49.02713 | 36969 ft | 525 kts | 97° |
| 2026-05-09 06:47 | 23.35018 | 49.10648 | 36962 ft | 525 kts | 97° |
| 2026-05-09 06:48 | 23.34664 | 49.18571 | 36960 ft | 524 kts | 97° |
| 2026-05-09 06:48 | 23.34306 | 49.26496 | 36961 ft | 524 kts | 97° |
| 2026-05-09 06:49 | 23.33945 | 49.34412 | 36960 ft | 524 kts | 97° |
| 2026-05-09 06:49 | 23.33584 | 49.42262 | 36960 ft | 523 kts | 97° |
| 2026-05-09 06:50 | 23.33215 | 49.50172 | 36952 ft | 523 kts | 97° |
| 2026-05-09 06:50 | 23.32843 | 49.58072 | 36956 ft | 523 kts | 97° |
| 2026-05-09 06:51 | 23.32467 | 49.65985 | 36953 ft | 524 kts | 97° |
| 2026-05-09 06:51 | 23.32087 | 49.73894 | 36951 ft | 523 kts | 97° |
| 2026-05-09 06:52 | 23.31703 | 49.81799 | 36954 ft | 523 kts | 97° |
| 2026-05-09 06:52 | 23.31316 | 49.89692 | 36956 ft | 523 kts | 97° |
| 2026-05-09 06:53 | 23.30924 | 49.97583 | 36948 ft | 522 kts | 97° |
| 2026-05-09 06:53 | 23.30529 | 50.05473 | 36949 ft | 522 kts | 97° |
| 2026-05-09 06:54 | 23.30131 | 50.13354 | 36947 ft | 521 kts | 97° |
| 2026-05-09 06:54 | 23.29729 | 50.21220 | 36946 ft | 521 kts | 97° |
| 2026-05-09 06:55 | 23.29322 | 50.29091 | 36945 ft | 522 kts | 97° |
| 2026-05-09 06:55 | 23.28911 | 50.36972 | 36944 ft | 522 kts | 97° |
| 2026-05-09 06:56 | 23.28497 | 50.44856 | 36946 ft | 522 kts | 97° |
| 2026-05-09 06:56 | 23.28079 | 50.52730 | 36944 ft | 522 kts | 97° |
| 2026-05-09 06:57 | 23.27657 | 50.60603 | 36940 ft | 522 kts | 97° |
| 2026-05-09 06:57 | 23.27231 | 50.68483 | 36938 ft | 521 kts | 97° |
| 2026-05-09 06:58 | 23.26874 | 50.75019 | 36941 ft | 521 kts | 97° |
| 2026-05-09 06:58 | 23.26442 | 50.82875 | 36936 ft | 520 kts | 97° |
| 2026-05-09 06:59 | 23.26007 | 50.90722 | 36936 ft | 519 kts | 97° |
| 2026-05-09 06:59 | 23.25567 | 50.98565 | 36938 ft | 519 kts | 97° |
| 2026-05-09 07:00 | 23.25125 | 51.06396 | 36936 ft | 519 kts | 97° |
| 2026-05-09 07:00 | 23.24679 | 51.14227 | 36936 ft | 519 kts | 97° |
| 2026-05-09 07:01 | 23.24223 | 51.22050 | 36934 ft | 518 kts | 97° |
| 2026-05-09 07:01 | 23.23757 | 51.29858 | 36933 ft | 517 kts | 97° |
| 2026-05-09 07:02 | 23.23291 | 51.37657 | 36933 ft | 517 kts | 97° |
| 2026-05-09 07:02 | 23.22367 | 51.45354 | 36935 ft | 510 kts | 108° |
| 2026-05-09 07:03 | 23.20251 | 51.52657 | 36925 ft | 503 kts | 117° |
| 2026-05-09 07:03 | 23.17488 | 51.59640 | 36921 ft | 503 kts | 118° |
| 2026-05-09 07:04 | 23.14716 | 51.66616 | 36937 ft | 503 kts | 118° |
| 2026-05-09 07:04 | 23.11981 | 51.73606 | 36935 ft | 503 kts | 117° |
| 2026-05-09 07:05 | 23.09256 | 51.80606 | 36937 ft | 503 kts | 117° |
| 2026-05-09 07:05 | 23.06527 | 51.87603 | 36919 ft | 503 kts | 117° |
| 2026-05-09 07:06 | 23.03791 | 51.94602 | 36927 ft | 503 kts | 117° |
| 2026-05-09 07:06 | 23.01052 | 52.01595 | 36929 ft | 503 kts | 117° |
| 2026-05-09 07:07 | 22.98316 | 52.08574 | 36926 ft | 502 kts | 117° |
| 2026-05-09 07:07 | 22.95578 | 52.15551 | 36923 ft | 503 kts | 117° |
| 2026-05-09 07:08 | 22.94671 | 52.17859 | 36923 ft | 503 kts | 117° |